»·PEaware :: N350JP KSBA-KSAN

N350JP :: KSBA-KSAN

FLIGHT INFORMATION

Flight Status: Arrived
Operator: Privately registered:
United States
More flights under this callsign
Pilot: Matthew D. (16794)
Aircraft: BEECH AIRCRAFT SUPER KING AIR 350
(B350)
More flights by this aircraft type
Origin: KSBA Santa Barbara Mun
United States
Destination: KSAN San Diego Intl-Lindbergh
United States
More flights between these airports :: More routes between these airports
Route: KWANG VTU V208 SXC V208 LAX118 CARDI MZB320 MZB
File this flight plan on PilotEdge
Remarks: DOF / 171007 REG / N350JP RMK / TCAS SIMBRIEF
Altitude:
(Current/Filed)
23,000ft
Speed:
(Current/Filed)
344kts
Departed: 07-Oct-17 01:26 PM
Arrived: 07-Oct-17 02:40 PM
Distance/Time
Traveled:
167nm/1:14
Distance/Time
To Go:
Arrived

Flight Plot

Page will automatically refresh every two minutes.


Map Options




Map Legend


Flown Route
Filed Route
Departure Airport
Arrival Airport
Navaid (VOR, NDB)
Fix

Horizontal Profiles

Position Reports

Time Latitude Longitude Heading Altitude Ground
Speed
07-Oct-17 13:09 34.423677 -119.835773 69 14ft 0kts
07-Oct-17 13:10 34.427957 -119.832289 268 14ft 0kts
07-Oct-17 13:11 34.423677 -119.835773 69 14ft 0kts
07-Oct-17 13:12 34.423677 -119.835773 69 14ft 0kts
07-Oct-17 13:13 34.423677 -119.835773 69 14ft 0kts
07-Oct-17 13:14 34.423677 -119.835773 69 14ft 0kts
07-Oct-17 13:15 34.423677 -119.835773 69 14ft 0kts
07-Oct-17 13:16 34.423677 -119.835773 69 14ft 0kts
07-Oct-17 13:17 34.423677 -119.835773 69 14ft 0kts
07-Oct-17 13:18 34.423677 -119.835773 69 14ft 0kts
07-Oct-17 13:19 34.423677 -119.835773 69 14ft 0kts
07-Oct-17 13:20 34.423677 -119.835773 69 14ft 0kts
07-Oct-17 13:21 34.423677 -119.835773 69 14ft 0kts
07-Oct-17 13:22 34.423677 -119.835773 69 14ft 0kts
07-Oct-17 13:23 34.423677 -119.835773 69 14ft 0kts
07-Oct-17 13:24 34.423512 -119.836324 69 14ft 2kts
07-Oct-17 13:25 34.425211 -119.837043 344 14ft 22kts
07-Oct-17 13:26 34.426875 -119.835188 88 14ft 32kts
07-Oct-17 13:27 34.426898 -119.834175 88 14ft 19kts
07-Oct-17 13:28 34.427520 -119.832074 357 14ft 0kts
07-Oct-17 13:29 34.427527 -119.832074 357 14ft 0kts
07-Oct-17 13:30 34.427929 -119.835586 268 14ft 80kts
07-Oct-17 13:31 34.426895 -119.889709 268 1186ft 178kts
07-Oct-17 13:32 34.425653 -119.954681 268 2962ft 220kts
07-Oct-17 13:33 34.425511 -120.034778 270 3001ft 246kts
07-Oct-17 13:34 34.385396 -120.078040 163 4346ft 221kts
07-Oct-17 13:35 34.328642 -120.045245 153 6046ft 232kts
07-Oct-17 13:36 34.271611 -120.004971 153 7453ft 240kts
07-Oct-17 13:37 34.211766 -119.961676 152 8112ft 256kts
07-Oct-17 13:38 34.151557 -119.918063 152 8987ft 260kts
07-Oct-17 13:39 34.110104 -119.851179 82 9004ft 274kts
07-Oct-17 13:40 34.132026 -119.764932 69 8999ft 266kts
07-Oct-17 13:41 34.154707 -119.679981 72 9000ft 266kts
07-Oct-17 13:42 34.173948 -119.593722 75 9000ft 266kts
07-Oct-17 13:43 34.166807 -119.506668 111 9000ft 266kts
07-Oct-17 13:44 34.124151 -119.439191 151 9001ft 257kts
07-Oct-17 13:45 34.068410 -119.386300 120 9004ft 264kts
07-Oct-17 13:46 34.040166 -119.304261 113 9000ft 265kts
07-Oct-17 13:47 34.012080 -119.221707 114 9000ft 265kts
07-Oct-17 13:48 33.981603 -119.138891 116 9000ft 275kts
07-Oct-17 13:49 33.948473 -119.055870 118 9000ft 275kts
07-Oct-17 13:50 33.912873 -118.974007 120 9000ft 275kts
07-Oct-17 13:51 33.861436 -118.908236 141 8999ft 270kts
07-Oct-17 13:52 33.805819 -118.847486 140 9000ft 270kts
07-Oct-17 13:53 33.750935 -118.785139 139 9000ft 271kts
07-Oct-17 13:54 33.697456 -118.721635 137 9055ft 271kts
07-Oct-17 13:55 33.644886 -118.656194 136 9055ft 272kts
07-Oct-17 13:56 33.593832 -118.589302 134 9055ft 272kts
07-Oct-17 13:57 33.544279 -118.520670 132 9055ft 272kts
07-Oct-17 13:58 33.496241 -118.449942 130 9055ft 273kts
07-Oct-17 13:59 33.450280 -118.377509 128 9055ft 273kts
07-Oct-17 14:00 33.406487 -118.302995 126 9055ft 274kts
07-Oct-17 14:01 33.366327 -118.225089 117 9055ft 275kts
07-Oct-17 14:02 33.341375 -118.138308 104 9055ft 277kts
07-Oct-17 14:03 33.325809 -118.047743 100 9055ft 277kts
07-Oct-17 14:04 33.312752 -117.956848 100 9055ft 277kts
07-Oct-17 14:05 33.300159 -117.865866 99 9055ft 277kts
07-Oct-17 14:06 33.287575 -117.774729 99 9054ft 275kts
07-Oct-17 14:07 33.275089 -117.684711 100 9055ft 274kts
07-Oct-17 14:08 33.260018 -117.595143 114 9056ft 273kts
07-Oct-17 14:09 33.216584 -117.522682 135 9138ft 268kts
07-Oct-17 14:10 33.165375 -117.457855 136 9138ft 268kts
07-Oct-17 14:11 33.111634 -117.410789 155 9136ft 239kts
07-Oct-17 14:12 33.077132 -117.389642 158 9137ft 235kts
07-Oct-17 14:13 33.018480 -117.356354 159 9138ft 233kts
07-Oct-17 14:14 32.965155 -117.326640 159 9135ft 220kts
07-Oct-17 14:15 32.910712 -117.296486 160 9137ft 214kts
07-Oct-17 14:16 32.856960 -117.266213 158 9137ft 210kts
07-Oct-17 14:17 32.805921 -117.234882 157 7807ft 219kts
07-Oct-17 14:18 32.765144 -117.187729 114 7131ft 196kts
07-Oct-17 14:19 32.744474 -117.124667 113 7140ft 210kts
07-Oct-17 14:20 32.724554 -117.063530 113 7137ft 205kts
07-Oct-17 14:21 32.704014 -117.000327 113 7138ft 204kts
07-Oct-17 14:22 32.683667 -116.937642 113 7138ft 203kts
07-Oct-17 14:23 32.662975 -116.873975 113 7154ft 229kts
07-Oct-17 14:24 32.637443 -116.796896 113 7140ft 259kts
07-Oct-17 14:25 32.610851 -116.716862 113 7138ft 261kts
07-Oct-17 14:26 32.584221 -116.636653 112 7138ft 261kts
07-Oct-17 14:27 32.557627 -116.556229 112 7135ft 256kts
07-Oct-17 14:28 32.550859 -116.477261 48 7138ft 250kts
07-Oct-17 14:29 32.603944 -116.483418 292 7146ft 216kts
07-Oct-17 14:30 32.616288 -116.552660 272 6197ft 204kts
07-Oct-17 14:31 32.616467 -116.617440 271 5222ft 187kts
07-Oct-17 14:32 32.620625 -116.673227 275 5128ft 153kts
07-Oct-17 14:33 32.625494 -116.726679 274 5142ft 171kts
07-Oct-17 14:34 32.631662 -116.782455 276 5138ft 168kts
07-Oct-17 14:35 32.635863 -116.837303 275 5138ft 166kts
07-Oct-17 14:36 32.639598 -116.892044 275 5139ft 168kts
07-Oct-17 14:37 32.647598 -116.951203 284 4628ft 201kts
07-Oct-17 14:38 32.661324 -117.013759 287 3802ft 191kts
07-Oct-17 14:39 32.674829 -117.072931 270 2685ft 178kts
07-Oct-17 14:40 32.683414 -117.113032 324 1353ft 119kts
07-Oct-17 14:41 32.709134 -117.134845 318 635ft 108kts
07-Oct-17 14:42 32.725998 -117.163191 294 329ft 100kts
07-Oct-17 14:43 32.734061 -117.191514 285 19ft 52kts
07-Oct-17 14:44 32.734207 -117.194814 198 19ft 0kts
07-Oct-17 14:45 32.732164 -117.196013 210 19ft 13kts
07-Oct-17 14:46 32.732025 -117.196113 211 19ft 0kts
07-Oct-17 14:47 32.732025 -117.196113 211 19ft 0kts
07-Oct-17 14:48 32.732025 -117.196113 211 19ft 0kts
07-Oct-17 14:49 32.732025 -117.196113 211 19ft 0kts
07-Oct-17 14:50 32.732025 -117.196113 211 19ft 0kts
07-Oct-17 14:51 32.732025 -117.196113 211 19ft 0kts
07-Oct-17 14:52 32.732025 -117.196113 211 19ft 0kts
07-Oct-17 14:53 32.732025 -117.196113 211 19ft 0kts
07-Oct-17 14:54 32.732025 -117.196113 211 19ft 0kts
07-Oct-17 14:55 32.732025 -117.196113 211 19ft 0kts
07-Oct-17 14:56 32.732025 -117.196113 211 19ft 0kts
07-Oct-17 14:57 32.732025 -117.196113 211 19ft 0kts
07-Oct-17 14:58 32.732025 -117.196113 211 19ft 0kts

Navigation Log

Ident Type
1. KSBA Airport
2. KWANG Fix
3. VTU Navaid
4. WEEZL Fix
5. SXC Navaid
6. CARDI Fix
7. MZB Navaid
8. KSAN Airport